Searles, Minnesota
Current Conditions -  °F | °C
As of 1:13 PM on Thursday 30 Oct 2014 (Local Time) from KULM Reporting Station
Clear Clear  
Wind Chill: 50°   Ceiling: Unl
Heat Index: 50°   Visibility: 10mi
Dew Point: 39°   Wind: 9mph
Humidity: 66%   Direction: 350°N
Pressure: 30.09"   Gusts: NA
Location:  44.23°N, 94.44°W
Report Text: KULM 301813Z AUTO 35008KT 10SM CLR 10/04 A3009 RMK AO2
Loading
Personal Weather Stations






























Interactive Weather Map
Tropical Storm Tracking
New forecast layout! Learn more

10-Day Weather Forecast

Advertisements
Track Severe Weather on mobile